sept
08

MX FIM – GP D’EUROPE : LES POLES POUR SÉBASTIEN POURCEL ET HERLINGS

MX1 – Qualifying Race – Classification
Pos Nr Rider Nat. Fed. Bike Time laps Diff. First Diff. Prev. Bestlaptime in lap Speed

1 11 Pourcel, Sebastien FRA FFM Kawasaki 24:58.836 12 0:00.000 0:00.000 1:54.171 7 52.027
2 377 Pourcel, Christophe FRA FFM Kawasaki 25:00.634 12 0:01.798 0:01.798 1:53.315 5 52.42
3 24 Simpson, Shaun GBR ACU Yamaha 25:01.550 12 0:02.714 0:00.916 1:54.411 4 51.918
4 25 Desalle, Clement BEL FMB Suzuki 25:03.456 12 0:04.620 0:01.906 1:53.959 7 52.124
5 777 Bobryshev, Evgeny RUS MFR Honda 25:08.138 12 0:09.302 0:04.682 1:53.884 7 52.158
6 9 de Dycker, Ken BEL FMB KTM 25:17.768 12 0:18.932 0:09.630 1:54.624 7 51.822
7 999 Goncalves, Rui POR FMP Honda 25:18.739 12 0:19.903 0:00.971 1:55.516 5 51.421
8 21 Paulin, Gautier FRA MCM Kawasaki 25:20.170 12 0:21.334 0:01.431 1:55.483 3 51.436
9 4 Leok, Tanel EST EMF Suzuki 25:21.500 12 0:22.664 0:01.330 1:55.090 6 51.612
10 6 Coppins, Joshua NZL MNZ Yamaha 25:22.626 12 0:23.790 0:01.126 1:55.117 8 51.6
11 12 Nagl, Maximilian GER DMSB KTM 25:24.507 12 0:25.671 0:01.881 1:55.297 6 51.519
12 7 Barragan, Jonathan ESP RFME Honda 25:27.242 12 0:28.406 0:02.735 1:55.767 7 51.31
13 39 Guarneri, Davide ITA FMI KTM 25:28.607 12 0:29.771 0:01.365 1:56.159 8 51.137
14 222 Cairoli, Antonio ITA FMI KTM 25:29.835 12 0:30.999 0:01.228 1:55.960 8 51.225
15 121 Boog, Xavier FRA FFM Kawasaki 25:30.403 12 0:31.567 0:00.568 1:56.276 11 51.085
16 22 Strijbos, Kevin BEL FMB KTM 25:45.836 12 0:47.000 0:15.433 1:55.991 3 51.211
17 30 Aranda, Gregory FRA FFM Yamaha 25:49.684 12 0:50.848 0:03.848 1:57.649 8 50.489
18 43 Mackenzie, Bryan GBR ACU KTM 25:55.814 12 0:56.978 0:06.130 1:58.163 6 50.27
19 32 Potisek, Milko FRA FFM Honda 25:57.858 12 0:59.022 0:02.044 1:58.344 12 50.193
20 555 Graeme, Irwin GBR ACU Yamaha 26:28.619 12 1:29.783 0:30.761 1:59.802 3 49.582
21 112 Law, Jamie GBR ACU KTM 26:29.709 12 1:30.873 0:01.090 1:59.804 6 49.581
22 138 Batista, Levy FRA FFM KTM 26:44.786 12 1:45.950 0:15.077 2:01.513 2 48.884
23 171 Bertuzzo, Pier Filippo ITA FMI Honda 26:47.403 12 1:48.567 0:02.617 2:01.235 2 48.996
24 95 Justs, Augusts LAT LAMSF Honda 26:48.528 12 1:49.692 0:01.125 2:01.415 4 48.923
25 323 Albertoni, Alessandro ITA FMI Kawasaki 26:51.374 12 1:52.538 0:02.846 2:01.680 3 48.817
26 611 Cociu, Mihail MDA FMI KTM 25:37.194 11 1 lap 1 lap 2:03.822 3 47.972
27 287 Schiffer, Marcus GER DMSB Suzuki 18:02.852 8 4 laps 3 laps 1:57.283 2 50.647
28 212 de Reuver, Marc NED KNMV Kawasaki 2:01.566 0 12 laps 8 laps 0:00.000 0

MX2 – Qualifying Race – Classification
Pos Nr Rider Nat. Fed. Bike Time laps Diff. First Diff. Prev. Bestlaptime in lap Speed

1 84 Herlings, Jeffrey NED KNMV KTM 25:00.785 12 0:00.000 0:00.000 1:54.928 7 51.685
2 89 van Horebeek, Jeremy BEL FMB KTM 25:02.245 12 0:01.460 0:01.460 1:54.480 3 51.887
3 338 Osborne, Zachary USA ACU Yamaha 25:03.619 12 0:02.834 0:01.374 1:54.727 3 51.775
4 100 Searle, Tommy GBR ACU Kawasaki 25:04.422 12 0:03.637 0:00.803 1:53.774 12 52.209
5 911 Tixier, Jordi FRA FFM KTM 25:26.486 12 0:25.701 0:22.064 1:56.129 4 51.15
6 45 Nicholls, Jake GBR ACU KTM 25:31.976 12 0:31.191 0:05.490 1:56.723 2 50.89
7 66 Tonkov, Alexander RUS MFR Honda 25:33.688 12 0:32.903 0:01.712 1:57.056 2 50.745
8 7 Tonus, Arnaud SUI FMS Yamaha 25:37.454 12 0:36.669 0:03.766 1:57.113 2 50.72
9 44 Banks-Browne, Elliott GBR ACU KTM 25:38.668 12 0:37.883 0:01.214 1:57.340 8 50.622
10 461 Febvre, Romain FRA FFM KTM 25:40.608 12 0:39.823 0:01.940 1:56.741 4 50.882
11 37 Teillet, Valentin FRA FFM Kawasaki 25:49.437 12 0:48.652 0:08.829 1:57.357 6 50.615
12 202 Larrieu, Loic FRA FFM Kawasaki 25:50.729 12 0:49.944 0:01.292 1:57.724 10 50.457
13 173 Guillod, Valentin SUI FMS KTM 26:01.431 12 1:00.646 0:10.702 1:58.289 4 50.216
14 25 Coldenhoff, Glenn NED KNMV KTM 26:04.267 12 1:03.482 0:02.836 1:58.324 9 50.201
15 249 Larsen, Nikolaj DEN DMU Suzuki 26:09.244 12 1:08.459 0:04.977 1:58.110 9 50.292
16 71 Graulus, Damon BEL FMB Suzuki 26:12.569 12 1:11.784 0:03.325 1:59.516 9 49.7
17 141 Cervellin, Andrea ITA FMI TM 26:13.756 12 1:12.971 0:01.187 1:58.325 3 50.201
18 33 Lieber, Julien BEL FMB Suzuki 26:17.540 12 1:16.755 0:03.784 1:57.691 5 50.471
19 128 Monticelli, Ivo ITA FMI Husqvarna 26:22.137 12 1:21.352 0:04.597 1:58.279 9 50.22
20 824 Kouwenberg, Nick NED KNMV TM 26:23.408 12 1:22.623 0:01.271 2:00.013 4 49.495
21 17 Butron, Jose ESP RFME KTM 26:24.176 12 1:23.391 0:00.768 1:59.191 4 49.836
22 6 Anstie, Max GBR AMA Honda 26:25.015 12 1:24.230 0:00.839 1:58.730 8 50.029
23 310 Mancuso, Antonio ITA FMI Honda 26:44.510 12 1:43.725 0:19.495 2:00.709 7 49.209
24 600 Ivanovs, Davis LAT LAMSF Kawasaki 26:59.891 12 1:59.106 0:15.381 2:01.585 5 48.855
25 101 Zeni, Samuel ITA FMI Yamaha 27:00.472 12 1:59.687 0:00.581 1:57.584 1 50.517
26 300 Golovkin, Viacheslav RUS LAMSF Kawasaki 27:02.549 12 2:01.764 0:02.077 2:03.170 9 48.226
27 103 Vandueren, Kenny BEL FMB Yamaha 25:30.505 11 1 lap 1 lap 2:03.859 4 47.958
28 841 Moroni, Luca ITA FMI Suzuki 25:34.986 11 1 lap 0:04.481 2:05.490 5 47.334
29 22 Ferrandis, Dylan FRA FFM Kawasaki 20:35.637 9 3 laps 2 laps 1:59.595 4 49.668
30 262 Del Segato, Giacomo ITA FMI KTM 16:11.089 6 6 laps 3 laps 2:02.629 3 48.439
31 77 Lupino, Alessandro ITA FMI Husqvarna 6:06.416 2 10 laps 4 laps 2:00.503 2 49.293
32 170 Leib, Michael USA AMA Yamaha 6:14.225 2 10 laps 0:07.809 1:59.147 2 49.854
33 195 Justs, Roberts LAT LAMSF Honda 6:29.492 2 10 laps 0:15.267 2:03.400 1 48.136
34 243 Gajser, Tim SLO AMZS KTM 1:58.793 0 12 laps 2 laps 0:00.000 0

EMX 250 – Race 1 – Classification
Pos Nr Rider Nat. Fed. Bike Time laps Diff. First Diff. Prev. Bestlaptime in lap Speed

1 222 Lacan, Jordan FRA FFM Kawasaki 30:29.426 14 0:00.000 0:00.000 2:00.574 1 49.264
2 142 Paturel, Benoit FRA FFM Kawasaki 30:31.015 14 0:01.589 0:01.589 2:01.123 6 49.041
3 23 Bernardini, Samuele ITA FMI KTM 30:45.329 14 0:15.903 0:14.314 2:01.054 7 49.069
4 119 Pocock, Mel GBR ACU Yamaha 30:52.842 14 0:23.416 0:07.513 1:58.831 2 49.987
5 707 Kappel, Robin FRA FFM KTM 31:14.841 14 0:45.415 0:21.999 2:03.689 5 48.024
6 136 Olsen, Stefan Kjer DEN DMU Yamaha 31:16.361 14 0:46.935 0:01.520 2:00.781 5 49.18
7 172 Van Doninck, Brent BEL FMB KTM 31:17.921 14 0:48.495 0:01.560 2:02.949 4 48.313
8 12 Brylyakov, Vsevolod RUS MFR KTM 31:18.902 14 0:49.476 0:00.981 2:03.607 7 48.056
9 837 Battig, Alessandro ITA FMI Yamaha 31:23.576 14 0:54.150 0:04.674 2:01.912 7 48.724
10 55 Kras, Mike NED KNMV Suzuki 31:25.064 14 0:55.638 0:01.488 2:01.353 14 48.948
11 161 Brevers, Ludovic BEL FMB Yamaha 31:30.522 14 1:01.096 0:05.458 2:03.642 1 48.042
12 173 Irt, Peter SLO AMZS Suzuki 31:34.985 14 1:05.559 0:04.463 2:04.366 10 47.762
13 221 Milesevic, Joel AUS MA KTM 31:37.090 14 1:07.664 0:02.105 2:03.612 11 48.054
14 247 Jönsson, Jesper SWE SVEMO Suzuki 31:38.113 14 1:08.687 0:01.023 2:04.542 10 47.695
15 951 Aubin, Arnaud FRA FFM KTM 31:40.591 14 1:11.165 0:02.478 2:03.541 7 48.081
16 165 Marrazzo, Dario ITA FMI Honda 31:51.130 14 1:21.704 0:10.539 2:05.251 3 47.425
17 90 Paganini, Marco ITA FMI Honda 31:51.912 14 1:22.486 0:00.782 2:04.805 2 47.594
18 15 Ekerold, Stefan GER DMSB KTM 31:59.641 14 1:30.215 0:07.729 2:05.961 1 47.157
19 181 Albers, Rene NED KNMV KTM 32:02.751 14 1:33.325 0:03.110 2:05.264 5 47.42
20 107 Van Berkel, Lars NED KNMV Honda 32:05.908 14 1:36.482 0:03.157 2:05.505 3 47.329
21 88 Van Stippen, Julien BEL FMB Suzuki 32:07.638 14 1:38.212 0:01.730 2:05.801 6 47.217
22 73 Norris, Luke GBR ACU Kawasaki 32:13.023 14 1:43.597 0:05.385 2:05.603 4 47.292
23 140 Hugyecz, Erik HUN MAMS Yamaha 32:15.127 14 1:45.701 0:02.104 2:06.025 12 47.134
24 555 Mallet, Simon FRA FFM Yamaha 32:18.730 14 1:49.304 0:03.603 2:03.728 4 48.009
25 18 De Waal, Micha – Boy NED KNMV Suzuki 32:24.364 14 1:54.938 0:05.634 2:05.089 3 47.486
26 347 Jönsson, Pontus SWE SVEMO Suzuki 32:26.169 14 1:56.743 0:01.805 2:07.412 5 46.62
27 241 Park, Andre EST EMF Honda 32:29.361 14 1:59.935 0:03.192 2:07.012 3 46.767
28 601 Ciola, Francesco ITA FMI Honda 30:38.122 13 1 lap 1 lap 2:08.510 8 46.222
29 771 Aperio, Matteo ITA FMI KTM 31:02.207 13 1 lap 0:24.085 2:02.989 10 48.297
30 38 Van De Sande, Axel BEL FMB KTM 31:11.811 13 1 lap 0:09.604 2:09.276 6 45.948
31 34 Brugnoni, Alessandro ITA FMI KTM 31:20.606 13 1 lap 0:08.795 2:09.306 2 45.938
32 101 De Bortoli, Davide ITA FMI Honda 32:33.707 13 1 lap 1:13.101 2:03.210 3 48.21
33 178 Ruzzi, Davide ITA FMI Suzuki 30:40.662 10 4 laps 3 laps 2:09.598 7 45.834
34 39 Hjortmarker, Eddie SWE SVEMO Suzuki 13:06.997 5 9 laps 5 laps 2:06.608 3 46.916
35 878 Pezzuto, Stefano ITA FMI Suzuki 6:16.938 2 12 laps 3 laps 2:02.669 2 48.423
36 64 Damiaens, Dietger BEL FMB KTM 2:17.714 0 14 laps 2 laps 0:00.000 0

EMX 125 – Race 1 – Classification
Pos Nr Rider Nat. Fed. Bike Time laps Diff. First Diff. Prev. Bestlaptime in lap Speed

1 95 Furlotti, Simone ITA FMI Suzuki 29:54.009 14 0:00.000 0:00.000 1:57.891 3 50.386
2 141 Jonass, Pauls LAT LAMSF KTM 30:07.206 14 0:13.197 0:13.197 1:58.116 2 50.29
3 16 Adams, Nicholas RSA ACU KTM 30:15.879 14 0:21.870 0:08.673 1:59.295 4 49.793
4 114 Della Mora, Alessio ITA FMI KTM 30:18.673 14 0:24.664 0:02.794 2:00.003 3 49.499
5 997 Righi, Riccardo ITA FMI KTM 30:23.749 14 0:29.740 0:05.076 1:59.402 6 49.748
6 999 Bonini, Davide ITA FMI KTM 30:28.171 14 0:34.162 0:04.422 2:00.027 6 49.489
7 29 Jacobi, Henry GER DMSB KTM 30:28.712 14 0:34.703 0:00.541 1:59.930 6 49.529
8 112 Vlaanderen, Calvin NED KNMV KTM 30:39.903 14 0:45.894 0:11.191 1:59.304 4 49.789
9 81 Larranaga, Iker ESP RFME Suzuki 30:53.407 14 0:59.398 0:13.504 2:01.205 4 49.008
10 79 Corneth, Jaap NED KNMV KTM 30:56.252 14 1:02.243 0:02.845 2:02.021 2 48.68
11 118 van Mechelen, Joel NED KNMV KTM 30:57.197 14 1:03.188 0:00.945 2:02.358 7 48.546
12 274 Lundgren, Anton SWE SVEMO KTM 31:10.278 14 1:16.269 0:13.081 2:02.117 2 48.642
13 200 Dunn, James GBR ACU KTM 31:14.141 14 1:20.132 0:03.863 2:01.820 9 48.76
14 100 Klingsheim, Magne NOR NMF KTM 31:18.064 14 1:24.055 0:03.923 2:00.161 2 49.434
15 148 Eccles, Michael GBR ACU KTM 31:18.543 14 1:24.534 0:00.479 2:03.564 8 48.072
16 191 Podmol, Filip CZE ACCR KTM 31:20.558 14 1:26.549 0:02.015 2:03.296 8 48.177
17 377 Krc, Martin CZE ACCR KTM 31:20.908 14 1:26.899 0:00.350 2:03.346 10 48.157
18 722 Mantovani, Michael ITA FMI KTM 31:29.060 14 1:35.051 0:08.152 2:03.268 9 48.188
19 131 Sileika, Tomass LAT LAMSF KTM 31:34.917 14 1:40.908 0:05.857 2:03.257 3 48.192
20 223 De Pietri, Tommaso ITA FMI Suzuki 31:38.789 14 1:44.780 0:03.872 2:04.214 6 47.821
21 99 Zaragoza Beltran, Jorge ESP RFME Suzuki 31:44.751 14 1:50.742 0:05.962 2:02.773 8 48.382
22 595 Toccaceli, Bryan SMR FSM Suzuki 31:46.285 14 1:52.276 0:01.534 2:04.255 3 47.805
23 22 Frosali, Leonardo ITA FMI Yamaha 31:46.850 14 1:52.841 0:00.565 2:03.945 6 47.924
24 63 Bengtsson, Carl SWE SVEMO Yamaha 31:49.762 14 1:55.753 0:02.912 2:04.248 7 47.808
25 134 Knight, Liam GBR ACU KTM 31:56.852 14 2:02.843 0:07.090 2:05.448 8 47.35
26 8 Deghi, Gianluca ITA FMI KTM 29:21.647 13 1 lap 1 lap 2:03.465 9 48.111
27 25 Vondrasek, Jan CZE ACCR KTM 30:32.732 13 1 lap 1:11.085 2:04.525 3 47.701
28 103 Tamagnini, Nicolo SMR FSM KTM 30:34.392 13 1 lap 0:01.660 2:08.284 3 46.304
29 275 Furbetta, Joakin ITA FMI KTM 30:38.008 13 1 lap 0:03.616 2:05.008 3 47.517
30 91 Lucaroni, Filippo ITA FMI KTM 30:38.895 13 1 lap 0:00.887 2:05.743 2 47.239
31 32 Christensen, Nikolaj DEN DMU KTM 30:44.610 13 1 lap 0:05.715 2:07.350 2 46.643
32 125 Kouble, Krystof CZE ACCR KTM 30:52.224 13 1 lap 0:07.614 2:09.739 3 45.784
33 428 Hansen, Andreas DEN DMU Yamaha 30:55.515 13 1 lap 0:03.291 2:09.629 4 45.823
34 313 Isdraela Romano, Tomasso ITA FMI KTM 22:54.067 9 5 laps 4 laps 2:05.248 3 47.426
35 20 Facchetti, Emanuele ITA FMI KTM 18:45.534 8 6 laps 1 lap 2:03.329 6 48.164
36 316 Ecca, Gianluca GER DMSB Suzuki 10:57.868 4 10 laps 4 laps 2:05.397 2 47.37
37 152 Marini, Thomas SMR FSM Suzuki 6:29.483 2 12 laps 2 laps 2:06.485 2 46.962
38 156 van Nobelen, Jordi NED KNMV KTM 10:04.173 2 12 laps 3:34.690 2:18.637 2 42.846

A voir aussi :

Le commentaires sont fermés.